Quincy, CA

3:57 AM PST on December 20, 2014 (GMT -0800)
Grass Valley | Change Station
CLOSE
Current Station
Airport
Location: Grass Valley,
Elevation: 3153 ft
Nearby Weather Stations

Elev 3153 ft 39.22 °N, 121.00 °W | Updated 17 minutes ago

Overcast
Overcast
45 °F
Feels Like 42 °F
N
5
Wind Variable Wind from South

Today
High -- | Low -- °F
--% Chance of Precip.
Yesterday
High -- | Low -- °F
Precip. -- in
7:21 AM 4:41 PM
Waning Crescent, 3% visible
Pressure 30.14 in
Visibility 0.5 miles
Clouds Overcast 100 ft
Windchill 42 °F
Dew Point 45 °F
Humidity 100%
Rainfall 0.19 in
Snow Depth Not available.
UV 0 out of 12
Pollen 1.70 out of 12
Air Quality Not available.
Flu Activity Not available.
METAR KGOO 201140Z AUTO 18004KT 1/2SM OVC001 07/07 A3014 RMK AO1

More Conditions Fewer Conditions

Pressure 30.14 in
Visibility 0.5 miles
Clouds Overcast 100 ft
Windchill 42 °F
Dew Point 45 °F
Humidity 100%
Rainfall 0.19 in
Snow Depth Not available.
UV 0 out of 12
Pollen 1.70 out of 12
Air Quality Not available.
Flu Activity Not available.
METAR KGOO 201140Z AUTO 18004KT 1/2SM OVC001 07/07 A3014 RMK AO1

More Conditions Fewer Conditions

10-Day Weather Forecast

Almanac

Astronomy

Dec. 20, 2014 Rise Set
Actual Time
Civil Twilight
Nautical Twilight
Astronomical Twilight
Moon
Length of Visible Light
Length of Day
Tomorrow will be .
, % of the Moon is Illuminated

Today's Extremes

State Highs State Lows

Community

WunderPhotos

Upload Photos

1,779,160 photos uploaded!

WunderBlogs® & News

Nearby

Air Quality

  Air Quality AQ Index Pollutant
Not available.

Snow Depth

Station Depth Elevation

Earthquake Activity

City Distance Mag. Time & Date
Minimum magnitude displayed is 2.5.

Coastal Water Temperatures

Place Temperature

Nearby Weather Stations